»·PEaware :: N416JK P52-E68

N416JK :: P52-E68

FLIGHT INFORMATION

Flight Status: Arrived
Operator: Privately registered:
United States
More flights under this callsign
Pilot: John K. (4202)
Aircraft: PIPER PA-46-310/350P MALIBU MIRAGE
(PA46)
More flights by this aircraft type
Origin: P52 Cottonwood
United States
Destination: E68 Estrella Sailport
United States
More flights between these airports :: More routes between these airports
Route: +MINGY1 MINGY V327 FERER V327 PXR V105 POPKE
File this flight plan on PilotEdge
Remarks:
Altitude:
(Current/Filed)
12,000ft
Speed:
(Current/Filed)
180kts
Departed: 07-Nov-20 12:55 PM
Arrived: 07-Nov-20 01:46 PM
Distance/Time
Traveled:
99nm/0:50
Distance/Time
To Go:
Arrived

Flight Plot

Page will automatically refresh every two minutes.

Flight plan parsing failed; only flown route is shown


Map Options




Map Legend


Flown Route
Filed Route
Departure Airport
Arrival Airport
Navaid (VOR, NDB)
Fix

Horizontal Profiles

Position Reports

Time Latitude Longitude Heading Altitude Ground
Speed
07-Nov-20 12:46 34.733513 -112.038434 64 3534ft 0kts
07-Nov-20 12:47 34.733513 -112.038434 64 3534ft 0kts
07-Nov-20 12:48 34.733513 -112.038435 64 3534ft 0kts
07-Nov-20 12:49 34.733512 -112.038434 64 3534ft 0kts
07-Nov-20 12:50 34.733443 -112.038333 172 3534ft 0kts
07-Nov-20 12:51 34.733314 -112.038297 148 3534ft 10kts
07-Nov-20 12:52 34.735072 -112.038586 34 3529ft 0kts
07-Nov-20 12:53 34.735072 -112.038586 34 3529ft 0kts
07-Nov-20 12:54 34.733690 -112.037204 154 3533ft 55kts
07-Nov-20 12:55 34.719611 -112.020640 139 5092ft 69kts
07-Nov-20 12:56 34.708833 -112.002767 143 6452ft 87kts
07-Nov-20 12:57 34.690122 -111.972539 139 7624ft 130kts
07-Nov-20 12:58 34.666766 -111.935208 140 8763ft 144kts
07-Nov-20 12:59 34.641996 -111.895982 140 9884ft 148kts
07-Nov-20 13:00 34.616774 -111.856032 142 10995ft 150kts
07-Nov-20 13:01 34.590524 -111.814695 145 11948ft 164kts
07-Nov-20 13:03 34.559680 -111.766378 142 11959ft 191kts
07-Nov-20 13:04 34.515850 -111.754929 188 11956ft 164kts
07-Nov-20 13:05 34.470122 -111.760140 190 11955ft 165kts
07-Nov-20 13:06 34.424598 -111.765838 190 12007ft 163kts
07-Nov-20 13:07 34.379233 -111.771552 190 12008ft 164kts
07-Nov-20 13:08 34.333721 -111.777266 190 12017ft 164kts
07-Nov-20 13:09 34.288057 -111.782807 190 12016ft 164kts
07-Nov-20 13:10 34.242582 -111.788522 190 12015ft 164kts
07-Nov-20 13:11 34.197225 -111.794495 194 12015ft 162kts
07-Nov-20 13:12 34.153152 -111.804542 195 12012ft 157kts
07-Nov-20 13:13 34.111491 -111.814124 195 12013ft 150kts
07-Nov-20 13:14 34.070712 -111.823571 195 12013ft 148kts
07-Nov-20 13:15 34.030151 -111.833072 195 11931ft 151kts
07-Nov-20 13:16 33.989189 -111.842586 195 11919ft 149kts
07-Nov-20 13:17 33.948666 -111.851954 195 11917ft 148kts
07-Nov-20 13:18 33.905842 -111.861890 194 10679ft 164kts
07-Nov-20 13:18 33.868035 -111.870599 194 9612ft 169kts
07-Nov-20 13:20 33.814943 -111.882734 194 8120ft 163kts
07-Nov-20 13:21 33.773442 -111.892243 194 8026ft 141kts
07-Nov-20 13:21 33.742393 -111.899397 195 8036ft 132kts
07-Nov-20 13:23 33.702490 -111.908481 196 8036ft 120kts
07-Nov-20 13:23 33.675218 -111.914864 196 8038ft 120kts
07-Nov-20 13:24 33.642451 -111.922414 196 8038ft 119kts
07-Nov-20 13:25 33.615257 -111.928566 197 8049ft 129kts
07-Nov-20 13:26 33.574548 -111.938123 196 8045ft 162kts
07-Nov-20 13:27 33.527524 -111.948832 195 7429ft 183kts
07-Nov-20 13:28 33.476621 -111.960280 196 6432ft 182kts
07-Nov-20 13:29 33.429921 -111.969325 184 6015ft 157kts
07-Nov-20 13:30 33.390327 -111.965308 183 6017ft 133kts
07-Nov-20 13:31 33.355226 -111.961679 203 6017ft 114kts
07-Nov-20 13:32 33.331687 -111.977877 219 5358ft 82kts
07-Nov-20 13:33 33.316930 -111.991051 252 4658ft 66kts
07-Nov-20 13:34 33.297189 -112.006198 211 4923ft 118kts
07-Nov-20 13:35 33.269013 -112.024967 216 5029ft 140kts
07-Nov-20 13:36 33.234270 -112.050542 216 5022ft 151kts
07-Nov-20 13:37 33.198576 -112.077023 216 4553ft 135kts
07-Nov-20 13:38 33.173479 -112.095483 219 3064ft 94kts
07-Nov-20 13:39 33.156493 -112.109204 235 2330ft 81kts
07-Nov-20 13:40 33.141777 -112.120830 222 1514ft 79kts
07-Nov-20 13:41 33.131396 -112.133450 166 1604ft 98kts
07-Nov-20 13:42 33.114711 -112.142484 244 2017ft 59kts
07-Nov-20 13:43 33.095862 -112.151845 143 1723ft 100kts
07-Nov-20 13:44 33.095447 -112.146870 188 1715ft 85kts
07-Nov-20 13:45 33.085620 -112.159920 252 1266ft 22kts
07-Nov-20 13:46 33.085172 -112.160780 174 1267ft 0kts

Navigation Log

Ident Type
Flight plan parsing failed, navigation log unavailable